sensor_id;sensor_type;location;lat;lon;timestamp;P1;P2;P0
38288;PMS5003;24092;53.370;-6.588;2022-07-29T00:00:28;5;4;
38288;PMS5003;24092;53.370;-6.588;2022-07-29T00:02:55;4;4;
38288;PMS5003;24092;53.370;-6.588;2022-07-29T00:05:22;6;6;
38288;PMS5003;24092;53.370;-6.588;2022-07-29T00:07:49;7;7;
38288;PMS5003;24092;53.370;-6.588;2022-07-29T00:10:16;7;6;
38288;PMS5003;24092;53.370;-6.588;2022-07-29T00:12:43;5;5;
38288;PMS5003;24092;53.370;-6.588;2022-07-29T00:15:10;7;6;
38288;PMS5003;24092;53.370;-6.588;2022-07-29T00:17:37;7;6;
38288;PMS5003;24092;53.370;-6.588;2022-07-29T00:20:04;7;7;
38288;PMS5003;24092;53.370;-6.588;2022-07-29T00:22:32;6;6;
38288;PMS5003;24092;53.370;-6.588;2022-07-29T00:25:03;7;7;
38288;PMS5003;24092;53.370;-6.588;2022-07-29T00:27:30;8;6;
38288;PMS5003;24092;53.370;-6.588;2022-07-29T00:29:57;6;5;
38288;PMS5003;24092;53.370;-6.588;2022-07-29T00:32:24;5;5;
38288;PMS5003;24092;53.370;-6.588;2022-07-29T00:34:51;5;5;
38288;PMS5003;24092;53.370;-6.588;2022-07-29T00:37:18;8;8;
38288;PMS5003;24092;53.370;-6.588;2022-07-29T00:39:45;5;5;
38288;PMS5003;24092;53.370;-6.588;2022-07-29T00:42:12;6;5;
38288;PMS5003;24092;53.370;-6.588;2022-07-29T00:44:38;6;5;
38288;PMS5003;24092;53.370;-6.588;2022-07-29T00:47:07;5;5;
38288;PMS5003;24092;53.370;-6.588;2022-07-29T00:49:36;5;5;
38288;PMS5003;24092;53.370;-6.588;2022-07-29T00:52:05;4;4;
38288;PMS5003;24092;53.370;-6.588;2022-07-29T00:54:33;6;6;
38288;PMS5003;24092;53.370;-6.588;2022-07-29T00:57:00;5;5;
38288;PMS5003;24092;53.370;-6.588;2022-07-29T00:59:28;4;4;
38288;PMS5003;24092;53.370;-6.588;2022-07-29T01:01:56;4;4;
38288;PMS5003;24092;53.370;-6.588;2022-07-29T01:04:23;5;5;
38288;PMS5003;24092;53.370;-6.588;2022-07-29T01:06:50;5;5;
38288;PMS5003;24092;53.370;-6.588;2022-07-29T01:09:20;5;5;
38288;PMS5003;24092;53.370;-6.588;2022-07-29T01:11:47;7;7;
38288;PMS5003;24092;53.370;-6.588;2022-07-29T01:14:15;6;6;
38288;PMS5003;24092;53.370;-6.588;2022-07-29T01:16:46;5;5;
38288;PMS5003;24092;53.370;-6.588;2022-07-29T01:19:23;5;5;
38288;PMS5003;24092;53.370;-6.588;2022-07-29T01:22:12;5;5;
38288;PMS5003;24092;53.370;-6.588;2022-07-29T01:24:59;5;5;
38288;PMS5003;24092;53.370;-6.588;2022-07-29T01:27:40;7;6;
38288;PMS5003;24092;53.370;-6.588;2022-07-29T01:30:14;4;4;
38288;PMS5003;24092;53.370;-6.588;2022-07-29T01:32:42;8;7;
38288;PMS5003;24092;53.370;-6.588;2022-07-29T01:35:15;5;5;
38288;PMS5003;24092;53.370;-6.588;2022-07-29T01:37:47;6;6;
38288;PMS5003;24092;53.370;-6.588;2022-07-29T01:40:19;6;6;
38288;PMS5003;24092;53.370;-6.588;2022-07-29T01:42:49;5;5;
38288;PMS5003;24092;53.370;-6.588;2022-07-29T01:45:20;4;4;
38288;PMS5003;24092;53.370;-6.588;2022-07-29T01:47:54;6;6;
38288;PMS5003;24092;53.370;-6.588;2022-07-29T01:50:28;5;5;
38288;PMS5003;24092;53.370;-6.588;2022-07-29T01:53:00;4;4;
38288;PMS5003;24092;53.370;-6.588;2022-07-29T01:55:32;6;6;
38288;PMS5003;24092;53.370;-6.588;2022-07-29T01:58:05;7;6;
38288;PMS5003;24092;53.370;-6.588;2022-07-29T02:00:33;5;4;
38288;PMS5003;24092;53.370;-6.588;2022-07-29T02:03:02;4;4;
38288;PMS5003;24092;53.370;-6.588;2022-07-29T02:05:34;5;5;
38288;PMS5003;24092;53.370;-6.588;2022-07-29T02:08:04;7;5;
38288;PMS5003;24092;53.370;-6.588;2022-07-29T02:10:33;6;6;
38288;PMS5003;24092;53.370;-6.588;2022-07-29T02:13:02;5;5;
38288;PMS5003;24092;53.370;-6.588;2022-07-29T02:15:32;6;5;
38288;PMS5003;24092;53.370;-6.588;2022-07-29T02:18:02;4;4;
38288;PMS5003;24092;53.370;-6.588;2022-07-29T02:20:31;6;6;
38288;PMS5003;24092;53.370;-6.588;2022-07-29T02:23:00;3;3;
38288;PMS5003;24092;53.370;-6.588;2022-07-29T02:25:29;7;7;
38288;PMS5003;24092;53.370;-6.588;2022-07-29T02:27:57;6;6;
38288;PMS5003;24092;53.370;-6.588;2022-07-29T02:30:26;5;5;
38288;PMS5003;24092;53.370;-6.588;2022-07-29T02:32:55;7;7;
38288;PMS5003;24092;53.370;-6.588;2022-07-29T02:35:23;7;7;
38288;PMS5003;24092;53.370;-6.588;2022-07-29T02:37:51;5;4;
38288;PMS5003;24092;53.370;-6.588;2022-07-29T02:40:20;6;6;
38288;PMS5003;24092;53.370;-6.588;2022-07-29T02:42:47;5;5;
38288;PMS5003;24092;53.370;-6.588;2022-07-29T02:45:14;7;6;
38288;PMS5003;24092;53.370;-6.588;2022-07-29T02:47:43;4;4;
38288;PMS5003;24092;53.370;-6.588;2022-07-29T02:50:15;7;6;
38288;PMS5003;24092;53.370;-6.588;2022-07-29T02:52:52;7;7;
38288;PMS5003;24092;53.370;-6.588;2022-07-29T02:55:23;6;6;
38288;PMS5003;24092;53.370;-6.588;2022-07-29T02:57:57;12;9;
38288;PMS5003;24092;53.370;-6.588;2022-07-29T03:00:28;7;7;
38288;PMS5003;24092;53.370;-6.588;2022-07-29T03:02:59;8;8;
38288;PMS5003;24092;53.370;-6.588;2022-07-29T03:05:30;9;9;
38288;PMS5003;24092;53.370;-6.588;2022-07-29T03:08:00;14;14;
38288;PMS5003;24092;53.370;-6.588;2022-07-29T03:10:29;10;10;
38288;PMS5003;24092;53.370;-6.588;2022-07-29T03:12:58;12;12;
38288;PMS5003;24092;53.370;-6.588;2022-07-29T03:15:26;19;18;
38288;PMS5003;24092;53.370;-6.588;2022-07-29T03:17:55;25;25;
38288;PMS5003;24092;53.370;-6.588;2022-07-29T03:20:24;17;17;
38288;PMS5003;24092;53.370;-6.588;2022-07-29T03:22:52;12;11;
38288;PMS5003;24092;53.370;-6.588;2022-07-29T03:25:20;9;8;
38288;PMS5003;24092;53.370;-6.588;2022-07-29T03:27:47;9;8;
38288;PMS5003;24092;53.370;-6.588;2022-07-29T03:30:14;8;8;
38288;PMS5003;24092;53.370;-6.588;2022-07-29T03:32:42;8;8;
38288;PMS5003;24092;53.370;-6.588;2022-07-29T03:35:09;9;8;
38288;PMS5003;24092;53.370;-6.588;2022-07-29T03:37:36;9;9;
38288;PMS5003;24092;53.370;-6.588;2022-07-29T03:40:03;7;7;
38288;PMS5003;24092;53.370;-6.588;2022-07-29T03:42:35;8;7;
38288;PMS5003;24092;53.370;-6.588;2022-07-29T03:45:07;8;6;
38288;PMS5003;24092;53.370;-6.588;2022-07-29T03:47:38;8;8;
38288;PMS5003;24092;53.370;-6.588;2022-07-29T03:50:10;8;7;
38288;PMS5003;24092;53.370;-6.588;2022-07-29T03:52:40;9;9;
38288;PMS5003;24092;53.370;-6.588;2022-07-29T03:55:08;6;6;
38288;PMS5003;24092;53.370;-6.588;2022-07-29T03:57:36;6;6;
38288;PMS5003;24092;53.370;-6.588;2022-07-29T04:00:06;7;7;
38288;PMS5003;24092;53.370;-6.588;2022-07-29T04:02:34;6;6;
38288;PMS5003;24092;53.370;-6.588;2022-07-29T04:05:04;8;8;
38288;PMS5003;24092;53.370;-6.588;2022-07-29T04:07:31;9;9;
38288;PMS5003;24092;53.370;-6.588;2022-07-29T04:09:58;9;9;
38288;PMS5003;24092;53.370;-6.588;2022-07-29T04:12:25;8;8;
38288;PMS5003;24092;53.370;-6.588;2022-07-29T04:14:52;10;9;
38288;PMS5003;24092;53.370;-6.588;2022-07-29T04:17:19;11;9;
38288;PMS5003;24092;53.370;-6.588;2022-07-29T04:19:45;8;8;
38288;PMS5003;24092;53.370;-6.588;2022-07-29T04:22:12;11;9;
38288;PMS5003;24092;53.370;-6.588;2022-07-29T04:24:39;5;5;
38288;PMS5003;24092;53.370;-6.588;2022-07-29T04:27:06;7;7;
38288;PMS5003;24092;53.370;-6.588;2022-07-29T04:29:33;8;8;
38288;PMS5003;24092;53.370;-6.588;2022-07-29T04:32:00;8;8;
38288;PMS5003;24092;53.370;-6.588;2022-07-29T04:34:27;7;6;
38288;PMS5003;24092;53.370;-6.588;2022-07-29T04:36:54;7;7;
38288;PMS5003;24092;53.370;-6.588;2022-07-29T04:39:22;8;7;
38288;PMS5003;24092;53.370;-6.588;2022-07-29T04:41:48;7;6;
38288;PMS5003;24092;53.370;-6.588;2022-07-29T04:44:16;6;6;
38288;PMS5003;24092;53.370;-6.588;2022-07-29T04:46:43;7;7;
38288;PMS5003;24092;53.370;-6.588;2022-07-29T04:49:10;8;7;
38288;PMS5003;24092;53.370;-6.588;2022-07-29T04:51:36;7;7;
38288;PMS5003;24092;53.370;-6.588;2022-07-29T04:54:03;10;9;
38288;PMS5003;24092;53.370;-6.588;2022-07-29T04:56:30;7;6;
38288;PMS5003;24092;53.370;-6.588;2022-07-29T04:58:57;9;8;
38288;PMS5003;24092;53.370;-6.588;2022-07-29T05:01:24;8;8;
38288;PMS5003;24092;53.370;-6.588;2022-07-29T05:03:51;7;7;
38288;PMS5003;24092;53.370;-6.588;2022-07-29T05:06:17;8;8;
38288;PMS5003;24092;53.370;-6.588;2022-07-29T05:08:44;6;6;
38288;PMS5003;24092;53.370;-6.588;2022-07-29T05:11:11;8;7;
38288;PMS5003;24092;53.370;-6.588;2022-07-29T05:13:38;9;9;
38288;PMS5003;24092;53.370;-6.588;2022-07-29T05:16:06;6;6;
38288;PMS5003;24092;53.370;-6.588;2022-07-29T05:18:34;6;6;
38288;PMS5003;24092;53.370;-6.588;2022-07-29T05:21:01;6;6;
38288;PMS5003;24092;53.370;-6.588;2022-07-29T05:23:28;7;7;
38288;PMS5003;24092;53.370;-6.588;2022-07-29T05:25:55;7;7;
38288;PMS5003;24092;53.370;-6.588;2022-07-29T05:28:22;11;11;
38288;PMS5003;24092;53.370;-6.588;2022-07-29T05:30:49;7;7;
38288;PMS5003;24092;53.370;-6.588;2022-07-29T05:33:16;10;9;
38288;PMS5003;24092;53.370;-6.588;2022-07-29T05:35:43;6;6;
38288;PMS5003;24092;53.370;-6.588;2022-07-29T05:38:10;6;6;
38288;PMS5003;24092;53.370;-6.588;2022-07-29T05:40:36;5;4;
38288;PMS5003;24092;53.370;-6.588;2022-07-29T05:43:03;5;5;
38288;PMS5003;24092;53.370;-6.588;2022-07-29T05:45:31;5;5;
38288;PMS5003;24092;53.370;-6.588;2022-07-29T05:47:57;6;5;
38288;PMS5003;24092;53.370;-6.588;2022-07-29T05:50:24;5;5;
38288;PMS5003;24092;53.370;-6.588;2022-07-29T05:52:51;7;7;
38288;PMS5003;24092;53.370;-6.588;2022-07-29T05:55:18;5;5;
38288;PMS5003;24092;53.370;-6.588;2022-07-29T05:57:45;5;5;
38288;PMS5003;24092;53.370;-6.588;2022-07-29T06:00:12;5;5;
38288;PMS5003;24092;53.370;-6.588;2022-07-29T06:02:39;3;2;
38288;PMS5003;24092;53.370;-6.588;2022-07-29T06:05:06;7;4;
38288;PMS5003;24092;53.370;-6.588;2022-07-29T06:07:34;4;4;
38288;PMS5003;24092;53.370;-6.588;2022-07-29T06:10:02;8;7;
38288;PMS5003;24092;53.370;-6.588;2022-07-29T06:12:29;6;6;
38288;PMS5003;24092;53.370;-6.588;2022-07-29T06:14:56;3;3;
38288;PMS5003;24092;53.370;-6.588;2022-07-29T06:17:23;7;6;
38288;PMS5003;24092;53.370;-6.588;2022-07-29T06:19:50;5;5;
38288;PMS5003;24092;53.370;-6.588;2022-07-29T06:22:16;8;8;
38288;PMS5003;24092;53.370;-6.588;2022-07-29T06:24:43;6;6;
38288;PMS5003;24092;53.370;-6.588;2022-07-29T06:27:11;6;5;
38288;PMS5003;24092;53.370;-6.588;2022-07-29T06:29:39;5;5;
38288;PMS5003;24092;53.370;-6.588;2022-07-29T06:32:05;5;4;
38288;PMS5003;24092;53.370;-6.588;2022-07-29T06:34:32;6;6;
38288;PMS5003;24092;53.370;-6.588;2022-07-29T06:36:59;4;4;
38288;PMS5003;24092;53.370;-6.588;2022-07-29T06:39:26;6;5;
38288;PMS5003;24092;53.370;-6.588;2022-07-29T06:41:53;6;5;
38288;PMS5003;24092;53.370;-6.588;2022-07-29T06:44:20;5;5;
38288;PMS5003;24092;53.370;-6.588;2022-07-29T06:46:47;7;6;
38288;PMS5003;24092;53.370;-6.588;2022-07-29T06:49:14;5;5;
38288;PMS5003;24092;53.370;-6.588;2022-07-29T06:51:40;6;6;
38288;PMS5003;24092;53.370;-6.588;2022-07-29T06:54:07;12;12;
38288;PMS5003;24092;53.370;-6.588;2022-07-29T06:56:35;8;8;
38288;PMS5003;24092;53.370;-6.588;2022-07-29T06:59:02;4;4;
38288;PMS5003;24092;53.370;-6.588;2022-07-29T07:01:30;11;10;
38288;PMS5003;24092;53.370;-6.588;2022-07-29T07:03:57;7;6;
38288;PMS5003;24092;53.370;-6.588;2022-07-29T07:06:24;4;4;
38288;PMS5003;24092;53.370;-6.588;2022-07-29T07:08:52;7;7;
38288;PMS5003;24092;53.370;-6.588;2022-07-29T07:11:20;7;6;
38288;PMS5003;24092;53.370;-6.588;2022-07-29T07:13:47;6;5;
38288;PMS5003;24092;53.370;-6.588;2022-07-29T07:16:15;6;6;
38288;PMS5003;24092;53.370;-6.588;2022-07-29T07:18:42;7;6;
38288;PMS5003;24092;53.370;-6.588;2022-07-29T07:21:10;5;5;
38288;PMS5003;24092;53.370;-6.588;2022-07-29T07:23:37;7;7;
38288;PMS5003;24092;53.370;-6.588;2022-07-29T07:26:04;8;7;
38288;PMS5003;24092;53.370;-6.588;2022-07-29T07:28:32;9;9;
38288;PMS5003;24092;53.370;-6.588;2022-07-29T07:30:58;7;7;
38288;PMS5003;24092;53.370;-6.588;2022-07-29T07:33:25;10;8;
38288;PMS5003;24092;53.370;-6.588;2022-07-29T07:35:52;8;7;
38288;PMS5003;24092;53.370;-6.588;2022-07-29T07:38:19;8;8;
38288;PMS5003;24092;53.370;-6.588;2022-07-29T07:40:45;9;9;
38288;PMS5003;24092;53.370;-6.588;2022-07-29T07:43:12;9;9;
38288;PMS5003;24092;53.370;-6.588;2022-07-29T07:45:40;8;8;
38288;PMS5003;24092;53.370;-6.588;2022-07-29T07:48:07;9;9;
38288;PMS5003;24092;53.370;-6.588;2022-07-29T07:50:33;9;9;
38288;PMS5003;24092;53.370;-6.588;2022-07-29T07:53:00;8;8;
38288;PMS5003;24092;53.370;-6.588;2022-07-29T07:55:27;7;7;
38288;PMS5003;24092;53.370;-6.588;2022-07-29T07:57:54;7;7;
38288;PMS5003;24092;53.370;-6.588;2022-07-29T08:00:22;7;6;
38288;PMS5003;24092;53.370;-6.588;2022-07-29T08:02:49;9;9;
38288;PMS5003;24092;53.370;-6.588;2022-07-29T08:05:17;7;7;
38288;PMS5003;24092;53.370;-6.588;2022-07-29T08:07:45;8;8;
38288;PMS5003;24092;53.370;-6.588;2022-07-29T08:10:13;6;6;
38288;PMS5003;24092;53.370;-6.588;2022-07-29T08:12:40;7;6;
38288;PMS5003;24092;53.370;-6.588;2022-07-29T08:15:08;6;6;
38288;PMS5003;24092;53.370;-6.588;2022-07-29T08:17:35;7;6;
38288;PMS5003;24092;53.370;-6.588;2022-07-29T08:20:03;5;5;
38288;PMS5003;24092;53.370;-6.588;2022-07-29T08:22:31;3;3;
38288;PMS5003;24092;53.370;-6.588;2022-07-29T08:24:58;6;5;
38288;PMS5003;24092;53.370;-6.588;2022-07-29T08:27:25;6;6;
38288;PMS5003;24092;53.370;-6.588;2022-07-29T08:29:52;10;9;
38288;PMS5003;24092;53.370;-6.588;2022-07-29T08:32:19;6;5;
38288;PMS5003;24092;53.370;-6.588;2022-07-29T08:34:46;3;3;
38288;PMS5003;24092;53.370;-6.588;2022-07-29T08:37:12;6;4;
38288;PMS5003;24092;53.370;-6.588;2022-07-29T08:39:39;4;4;
38288;PMS5003;24092;53.370;-6.588;2022-07-29T08:42:07;3;3;
38288;PMS5003;24092;53.370;-6.588;2022-07-29T08:44:34;2;2;
38288;PMS5003;24092;53.370;-6.588;2022-07-29T08:47:01;3;3;
38288;PMS5003;24092;53.370;-6.588;2022-07-29T08:49:29;4;4;
38288;PMS5003;24092;53.370;-6.588;2022-07-29T08:51:57;3;3;
38288;PMS5003;24092;53.370;-6.588;2022-07-29T08:54:24;5;5;
38288;PMS5003;24092;53.370;-6.588;2022-07-29T08:56:51;20;17;
38288;PMS5003;24092;53.370;-6.588;2022-07-29T08:59:20;9;8;
38288;PMS5003;24092;53.370;-6.588;2022-07-29T09:01:49;8;7;
38288;PMS5003;24092;53.370;-6.588;2022-07-29T09:04:19;6;5;
38288;PMS5003;24092;53.370;-6.588;2022-07-29T09:06:48;7;6;
38288;PMS5003;24092;53.370;-6.588;2022-07-29T09:09:17;8;7;
38288;PMS5003;24092;53.370;-6.588;2022-07-29T09:11:44;6;5;
38288;PMS5003;24092;53.370;-6.588;2022-07-29T09:14:12;16;14;
38288;PMS5003;24092;53.370;-6.588;2022-07-29T09:16:45;10;7;
38288;PMS5003;24092;53.370;-6.588;2022-07-29T09:19:23;6;6;
38288;PMS5003;24092;53.370;-6.588;2022-07-29T09:21:53;6;5;
38288;PMS5003;24092;53.370;-6.588;2022-07-29T09:24:21;3;3;
38288;PMS5003;24092;53.370;-6.588;2022-07-29T09:26:48;4;3;
38288;PMS5003;24092;53.370;-6.588;2022-07-29T09:29:15;4;3;
38288;PMS5003;24092;53.370;-6.588;2022-07-29T09:31:44;4;4;
38288;PMS5003;24092;53.370;-6.588;2022-07-29T09:34:13;5;5;
38288;PMS5003;24092;53.370;-6.588;2022-07-29T09:36:42;6;5;
38288;PMS5003;24092;53.370;-6.588;2022-07-29T09:39:11;4;4;
38288;PMS5003;24092;53.370;-6.588;2022-07-29T09:41:46;4;4;
38288;PMS5003;24092;53.370;-6.588;2022-07-29T09:44:15;3;3;
38288;PMS5003;24092;53.370;-6.588;2022-07-29T09:47:01;4;3;
38288;PMS5003;24092;53.370;-6.588;2022-07-29T09:49:29;5;4;
38288;PMS5003;24092;53.370;-6.588;2022-07-29T09:52:05;3;3;
38288;PMS5003;24092;53.370;-6.588;2022-07-29T09:54:34;4;4;
38288;PMS5003;24092;53.370;-6.588;2022-07-29T09:57:02;3;3;
38288;PMS5003;24092;53.370;-6.588;2022-07-29T09:59:30;6;5;
38288;PMS5003;24092;53.370;-6.588;2022-07-29T10:01:58;2;2;
38288;PMS5003;24092;53.370;-6.588;2022-07-29T10:04:36;2;2;
38288;PMS5003;24092;53.370;-6.588;2022-07-29T10:07:04;3;3;
38288;PMS5003;24092;53.370;-6.588;2022-07-29T10:09:31;6;6;
38288;PMS5003;24092;53.370;-6.588;2022-07-29T10:12:02;11;10;
38288;PMS5003;24092;53.370;-6.588;2022-07-29T10:14:31;6;6;
38288;PMS5003;24092;53.370;-6.588;2022-07-29T10:16:59;7;6;
38288;PMS5003;24092;53.370;-6.588;2022-07-29T10:19:27;2;2;
38288;PMS5003;24092;53.370;-6.588;2022-07-29T10:21:55;3;3;
38288;PMS5003;24092;53.370;-6.588;2022-07-29T10:24:24;3;3;
38288;PMS5003;24092;53.370;-6.588;2022-07-29T10:26:53;4;4;
38288;PMS5003;24092;53.370;-6.588;2022-07-29T10:29:22;4;3;
38288;PMS5003;24092;53.370;-6.588;2022-07-29T10:31:51;3;3;
38288;PMS5003;24092;53.370;-6.588;2022-07-29T10:34:46;2;2;
38288;PMS5003;24092;53.370;-6.588;2022-07-29T10:37:22;3;2;
38288;PMS5003;24092;53.370;-6.588;2022-07-29T10:39:59;2;2;
38288;PMS5003;24092;53.370;-6.588;2022-07-29T10:42:35;3;2;
38288;PMS5003;24092;53.370;-6.588;2022-07-29T10:45:07;2;2;
38288;PMS5003;24092;53.370;-6.588;2022-07-29T10:47:35;3;2;
38288;PMS5003;24092;53.370;-6.588;2022-07-29T10:50:03;4;2;
38288;PMS5003;24092;53.370;-6.588;2022-07-29T10:52:51;2;2;
38288;PMS5003;24092;53.370;-6.588;2022-07-29T10:55:36;3;3;
38288;PMS5003;24092;53.370;-6.588;2022-07-29T10:58:12;2;2;
38288;PMS5003;24092;53.370;-6.588;2022-07-29T11:00:41;2;2;
38288;PMS5003;24092;53.370;-6.588;2022-07-29T11:03:08;1;1;
38288;PMS5003;24092;53.370;-6.588;2022-07-29T11:06:06;3;3;
38288;PMS5003;24092;53.370;-6.588;2022-07-29T11:08:33;2;2;
38288;PMS5003;24092;53.370;-6.588;2022-07-29T11:11:32;3;3;
38288;PMS5003;24092;53.370;-6.588;2022-07-29T11:13:59;3;3;
38288;PMS5003;24092;53.370;-6.588;2022-07-29T11:16:30;2;2;
38288;PMS5003;24092;53.370;-6.588;2022-07-29T11:19:25;4;3;
38288;PMS5003;24092;53.370;-6.588;2022-07-29T11:21:51;1;1;
38288;PMS5003;24092;53.370;-6.588;2022-07-29T11:24:20;2;2;
38288;PMS5003;24092;53.370;-6.588;2022-07-29T11:27:22;3;3;
38288;PMS5003;24092;53.370;-6.588;2022-07-29T11:29:57;2;2;
38288;PMS5003;24092;53.370;-6.588;2022-07-29T11:32:25;4;2;
38288;PMS5003;24092;53.370;-6.588;2022-07-29T11:35:17;1;1;
38288;PMS5003;24092;53.370;-6.588;2022-07-29T11:37:46;2;2;
38288;PMS5003;24092;53.370;-6.588;2022-07-29T11:41:15;3;3;
38288;PMS5003;24092;53.370;-6.588;2022-07-29T11:43:47;34;34;
38288;PMS5003;24092;53.370;-6.588;2022-07-29T11:46:15;9;8;
38288;PMS5003;24092;53.370;-6.588;2022-07-29T11:48:43;5;4;
38288;PMS5003;24092;53.370;-6.588;2022-07-29T11:51:10;5;5;
38288;PMS5003;24092;53.370;-6.588;2022-07-29T11:53:38;3;3;
38288;PMS5003;24092;53.370;-6.588;2022-07-29T11:56:08;2;2;
38288;PMS5003;24092;53.370;-6.588;2022-07-29T11:58:39;6;6;
38288;PMS5003;24092;53.370;-6.588;2022-07-29T12:01:07;14;13;
38288;PMS5003;24092;53.370;-6.588;2022-07-29T12:03:39;5;5;
38288;PMS5003;24092;53.370;-6.588;2022-07-29T12:06:11;3;3;
38288;PMS5003;24092;53.370;-6.588;2022-07-29T12:08:39;1;1;
38288;PMS5003;24092;53.370;-6.588;2022-07-29T12:11:14;7;6;
38288;PMS5003;24092;53.370;-6.588;2022-07-29T12:13:42;2;2;
38288;PMS5003;24092;53.370;-6.588;2022-07-29T12:16:09;2;2;
38288;PMS5003;24092;53.370;-6.588;2022-07-29T12:18:37;2;2;
38288;PMS5003;24092;53.370;-6.588;2022-07-29T12:23:29;3;3;
38288;PMS5003;24092;53.370;-6.588;2022-07-29T12:25:57;1;1;
38288;PMS5003;24092;53.370;-6.588;2022-07-29T12:28:25;2;2;
38288;PMS5003;24092;53.370;-6.588;2022-07-29T12:30:53;1;1;
38288;PMS5003;24092;53.370;-6.588;2022-07-29T12:33:21;3;3;
38288;PMS5003;24092;53.370;-6.588;2022-07-29T12:35:50;2;2;
38288;PMS5003;24092;53.370;-6.588;2022-07-29T12:38:20;2;2;
38288;PMS5003;24092;53.370;-6.588;2022-07-29T12:40:48;0;0;
38288;PMS5003;24092;53.370;-6.588;2022-07-29T12:43:16;2;2;
38288;PMS5003;24092;53.370;-6.588;2022-07-29T12:45:46;3;3;
38288;PMS5003;24092;53.370;-6.588;2022-07-29T12:48:14;2;2;
38288;PMS5003;24092;53.370;-6.588;2022-07-29T12:50:58;1;1;
38288;PMS5003;24092;53.370;-6.588;2022-07-29T12:53:26;2;2;
38288;PMS5003;24092;53.370;-6.588;2022-07-29T12:55:54;1;1;
38288;PMS5003;24092;53.370;-6.588;2022-07-29T12:58:26;2;2;
38288;PMS5003;24092;53.370;-6.588;2022-07-29T13:01:04;1;1;
38288;PMS5003;24092;53.370;-6.588;2022-07-29T13:03:42;1;1;
38288;PMS5003;24092;53.370;-6.588;2022-07-29T13:06:27;3;2;
38288;PMS5003;24092;53.370;-6.588;2022-07-29T13:08:58;1;1;
38288;PMS5003;24092;53.370;-6.588;2022-07-29T13:11:28;1;1;
38288;PMS5003;24092;53.370;-6.588;2022-07-29T13:13:55;3;2;
38288;PMS5003;24092;53.370;-6.588;2022-07-29T13:16:23;1;1;
38288;PMS5003;24092;53.370;-6.588;2022-07-29T13:19:02;1;1;
38288;PMS5003;24092;53.370;-6.588;2022-07-29T13:21:31;1;1;
38288;PMS5003;24092;53.370;-6.588;2022-07-29T13:23:58;1;1;
38288;PMS5003;24092;53.370;-6.588;2022-07-29T13:26:26;2;1;
38288;PMS5003;24092;53.370;-6.588;2022-07-29T13:28:53;2;2;
38288;PMS5003;24092;53.370;-6.588;2022-07-29T13:31:21;1;1;
38288;PMS5003;24092;53.370;-6.588;2022-07-29T13:33:49;2;1;
38288;PMS5003;24092;53.370;-6.588;2022-07-29T13:36:16;0;0;
38288;PMS5003;24092;53.370;-6.588;2022-07-29T13:38:44;1;1;
38288;PMS5003;24092;53.370;-6.588;2022-07-29T13:41:11;1;1;
38288;PMS5003;24092;53.370;-6.588;2022-07-29T13:43:39;0;0;
38288;PMS5003;24092;53.370;-6.588;2022-07-29T13:46:06;2;1;
38288;PMS5003;24092;53.370;-6.588;2022-07-29T13:48:34;2;1;
38288;PMS5003;24092;53.370;-6.588;2022-07-29T13:51:02;1;1;
38288;PMS5003;24092;53.370;-6.588;2022-07-29T13:53:29;0;0;
38288;PMS5003;24092;53.370;-6.588;2022-07-29T13:55:56;2;1;
38288;PMS5003;24092;53.370;-6.588;2022-07-29T13:58:24;1;1;
38288;PMS5003;24092;53.370;-6.588;2022-07-29T14:00:51;1;1;
38288;PMS5003;24092;53.370;-6.588;2022-07-29T14:03:19;1;1;
38288;PMS5003;24092;53.370;-6.588;2022-07-29T14:05:46;1;1;
38288;PMS5003;24092;53.370;-6.588;2022-07-29T14:08:14;2;2;
38288;PMS5003;24092;53.370;-6.588;2022-07-29T14:10:41;2;2;
38288;PMS5003;24092;53.370;-6.588;2022-07-29T14:13:09;1;1;
38288;PMS5003;24092;53.370;-6.588;2022-07-29T14:15:36;1;1;
38288;PMS5003;24092;53.370;-6.588;2022-07-29T14:18:04;1;1;
38288;PMS5003;24092;53.370;-6.588;2022-07-29T14:20:31;1;1;
38288;PMS5003;24092;53.370;-6.588;2022-07-29T14:22:59;1;1;
38288;PMS5003;24092;53.370;-6.588;2022-07-29T14:25:27;1;1;
38288;PMS5003;24092;53.370;-6.588;2022-07-29T14:27:54;1;1;
38288;PMS5003;24092;53.370;-6.588;2022-07-29T14:30:22;2;2;
38288;PMS5003;24092;53.370;-6.588;2022-07-29T14:32:49;1;1;
38288;PMS5003;24092;53.370;-6.588;2022-07-29T14:35:17;2;2;
38288;PMS5003;24092;53.370;-6.588;2022-07-29T14:37:44;2;2;
38288;PMS5003;24092;53.370;-6.588;2022-07-29T14:40:12;2;2;
38288;PMS5003;24092;53.370;-6.588;2022-07-29T14:42:39;2;0;
38288;PMS5003;24092;53.370;-6.588;2022-07-29T14:45:08;1;1;
38288;PMS5003;24092;53.370;-6.588;2022-07-29T14:47:36;2;2;
38288;PMS5003;24092;53.370;-6.588;2022-07-29T14:50:03;1;1;
38288;PMS5003;24092;53.370;-6.588;2022-07-29T14:52:32;2;2;
38288;PMS5003;24092;53.370;-6.588;2022-07-29T14:55:00;1;1;
38288;PMS5003;24092;53.370;-6.588;2022-07-29T14:57:27;2;2;
38288;PMS5003;24092;53.370;-6.588;2022-07-29T14:59:55;2;1;
38288;PMS5003;24092;53.370;-6.588;2022-07-29T15:02:22;2;1;
38288;PMS5003;24092;53.370;-6.588;2022-07-29T15:04:50;1;1;
38288;PMS5003;24092;53.370;-6.588;2022-07-29T15:07:17;2;2;
38288;PMS5003;24092;53.370;-6.588;2022-07-29T15:09:45;0;0;
38288;PMS5003;24092;53.370;-6.588;2022-07-29T15:12:12;2;2;
38288;PMS5003;24092;53.370;-6.588;2022-07-29T15:14:40;2;2;
38288;PMS5003;24092;53.370;-6.588;2022-07-29T15:17:07;1;1;
38288;PMS5003;24092;53.370;-6.588;2022-07-29T15:19:35;3;2;
38288;PMS5003;24092;53.370;-6.588;2022-07-29T15:22:02;3;2;
38288;PMS5003;24092;53.370;-6.588;2022-07-29T15:24:30;2;2;
38288;PMS5003;24092;53.370;-6.588;2022-07-29T15:26:58;9;7;
38288;PMS5003;24092;53.370;-6.588;2022-07-29T15:29:25;2;2;
38288;PMS5003;24092;53.370;-6.588;2022-07-29T15:31:53;1;1;
38288;PMS5003;24092;53.370;-6.588;2022-07-29T15:34:20;1;1;
38288;PMS5003;24092;53.370;-6.588;2022-07-29T15:36:48;1;1;
38288;PMS5003;24092;53.370;-6.588;2022-07-29T15:39:15;2;2;
38288;PMS5003;24092;53.370;-6.588;2022-07-29T15:41:43;2;2;
38288;PMS5003;24092;53.370;-6.588;2022-07-29T15:44:10;0;0;
38288;PMS5003;24092;53.370;-6.588;2022-07-29T15:46:38;1;1;
38288;PMS5003;24092;53.370;-6.588;2022-07-29T15:49:06;1;0;
38288;PMS5003;24092;53.370;-6.588;2022-07-29T15:51:34;2;2;
38288;PMS5003;24092;53.370;-6.588;2022-07-29T15:54:03;1;1;
38288;PMS5003;24092;53.370;-6.588;2022-07-29T15:56:31;2;2;
38288;PMS5003;24092;53.370;-6.588;2022-07-29T15:58:58;3;2;
38288;PMS5003;24092;53.370;-6.588;2022-07-29T16:01:26;2;2;
38288;PMS5003;24092;53.370;-6.588;2022-07-29T16:03:53;2;2;
38288;PMS5003;24092;53.370;-6.588;2022-07-29T16:06:21;2;2;
38288;PMS5003;24092;53.370;-6.588;2022-07-29T16:08:48;2;1;
38288;PMS5003;24092;53.370;-6.588;2022-07-29T16:11:16;1;1;
38288;PMS5003;24092;53.370;-6.588;2022-07-29T16:13:43;2;2;
38288;PMS5003;24092;53.370;-6.588;2022-07-29T16:16:11;1;1;
38288;PMS5003;24092;53.370;-6.588;2022-07-29T16:18:38;2;2;
38288;PMS5003;24092;53.370;-6.588;2022-07-29T16:21:06;0;0;
38288;PMS5003;24092;53.370;-6.588;2022-07-29T16:23:33;2;2;
38288;PMS5003;24092;53.370;-6.588;2022-07-29T16:26:01;2;2;
38288;PMS5003;24092;53.370;-6.588;2022-07-29T16:28:29;2;2;
38288;PMS5003;24092;53.370;-6.588;2022-07-29T16:30:56;3;2;
38288;PMS5003;24092;53.370;-6.588;2022-07-29T16:33:24;2;2;
38288;PMS5003;24092;53.370;-6.588;2022-07-29T16:35:51;3;2;
38288;PMS5003;24092;53.370;-6.588;2022-07-29T16:38:19;1;1;
38288;PMS5003;24092;53.370;-6.588;2022-07-29T16:40:46;1;1;
38288;PMS5003;24092;53.370;-6.588;2022-07-29T16:43:14;1;1;
38288;PMS5003;24092;53.370;-6.588;2022-07-29T16:45:41;2;2;
38288;PMS5003;24092;53.370;-6.588;2022-07-29T16:48:09;1;1;